Terminal Aerodrome Forecast
Issued by NWS

Home | Current Version | Previous Version | Text Only | Print | Product List | Glossary On
Versions: 1 2 3 4 5 6 7 8 9 10 11 12 13 14 15 16 17 18 19 20 21
242
FTUS42 KFFC 221726
TAFPDK
TAF
KPDK 221726Z 2218/2318 31005KT P6SM VCSH SCT025 BKN050
      TEMPO 2218/2221 VRB10KT 4SM -TSRA BKN025CB
     FM230000 VRB03KT 5SM SHRA VCTS BKN020CB
     FM230600 VRB03KT 5SM -SHRA VCTS BKN008CB
     FM231200 25005KT 4SM -SHRA OVC008
     FM231500 27007KT 5SM -SHRA OVC015=

USA.gov is the U.S. government's official web portal to all federal, state and local government web resources and services.